Time;durP1;ratioP1;P1;durP2;ratioP2;P2;SDS_P1;SDS_P2;PMS_P1;PMS_P2;Temp;Humidity;BMP_temperature;BMP_pressure;BME280_temperature;BME280_humidity;BME280_pressure;Samples;Min_cycle;Max_cycle;Signal;HPM_P1;HPM_P2
2023/04/06 00:00:50;;;;;;;6.83;5.80;;;1.50;99.90;;;;;;5056209;28;20924;-51
2023/04/06 00:03:18;;;;;;;9.03;6.37;;;1.50;99.90;;;;;;5036318;28;20461;-51
2023/04/06 00:05:45;;;;;;;7.37;6.70;;;1.30;99.90;;;;;;5015855;28;20445;-52
2023/04/06 00:08:12;;;;;;;7.40;6.70;;;1.30;99.90;;;;;;5016521;28;20448;-51
2023/04/06 00:10:39;;;;;;;8.23;6.13;;;1.60;99.90;;;;;;5015922;28;20440;-51
2023/04/06 00:13:07;;;;;;;8.20;7.40;;;1.40;99.90;;;;;;5015863;28;20681;-50
2023/04/06 00:15:34;;;;;;;7.33;6.47;;;1.30;99.90;;;;;;5015752;28;20538;-50
2023/04/06 00:18:01;;;;;;;8.13;7.37;;;1.00;99.90;;;;;;5015280;28;20452;-49
2023/04/06 00:20:30;;;;;;;9.47;8.00;;;1.20;99.90;;;;;;5015945;28;20864;-51
2023/04/06 00:22:57;;;;;;;9.23;7.23;;;1.20;99.90;;;;;;5015222;28;20464;-50
2023/04/06 00:25:24;;;;;;;7.60;6.33;;;1.20;99.90;;;;;;5015610;28;20488;-51
2023/04/06 00:27:51;;;;;;;12.00;6.27;;;1.40;99.90;;;;;;5015388;28;20515;-51
2023/04/06 00:30:18;;;;;;;8.27;6.20;;;1.30;99.90;;;;;;5014761;28;20451;-51
2023/04/06 00:32:45;;;;;;;6.77;6.10;;;1.20;99.90;;;;;;5015027;28;21049;-51
2023/04/06 00:35:12;;;;;;;7.03;6.13;;;1.20;99.90;;;;;;5015230;28;20443;-53
2023/04/06 00:37:40;;;;;;;7.40;6.70;;;1.30;99.90;;;;;;5015470;28;20946;-52
2023/04/06 00:40:08;;;;;;;6.53;5.63;;;1.40;99.90;;;;;;5014777;28;20529;-51
2023/04/06 00:42:36;;;;;;;5.87;5.37;;;1.40;99.90;;;;;;5015355;28;20498;-49
2023/04/06 00:45:03;;;;;;;8.00;5.97;;;1.40;99.90;;;;;;5014846;28;20475;-51
2023/04/06 00:47:30;;;;;;;5.80;5.20;;;1.20;99.90;;;;;;5015246;28;20499;-50
2023/04/06 00:49:57;;;;;;;6.37;5.77;;;1.10;99.90;;;;;;5015964;28;21004;-50
2023/04/06 00:52:24;;;;;;;6.70;5.40;;;1.00;99.90;;;;;;5015268;28;21048;-49
2023/04/06 00:54:53;;;;;;;7.13;6.43;;;0.80;99.90;;;;;;5013874;28;20441;-51
2023/04/06 00:57:20;;;;;;;6.20;5.60;;;0.90;99.90;;;;;;5014576;28;20451;-50
2023/04/06 00:59:47;;;;;;;8.60;6.00;;;0.80;99.90;;;;;;5013424;28;20521;-50
2023/04/06 01:02:14;;;;;;;6.80;5.80;;;0.90;99.90;;;;;;5013332;28;20448;-50
2023/04/06 01:04:41;;;;;;;6.60;5.97;;;1.10;99.90;;;;;;5014015;28;20477;-50
2023/04/06 01:07:08;;;;;;;6.53;5.93;;;1.20;99.90;;;;;;5014614;28;20444;-50
2023/04/06 01:09:35;;;;;;;6.10;5.60;;;1.10;99.90;;;;;;5014605;28;20451;-52
2023/04/06 01:12:04;;;;;;;6.33;5.63;;;1.10;99.90;;;;;;5014329;28;20489;-50
2023/04/06 01:14:31;;;;;;;7.40;6.70;;;1.20;99.90;;;;;;5011715;28;20444;-51
2023/04/06 01:17:00;;;;;;;7.30;5.60;;;1.30;99.90;;;;;;5018316;28;20950;-50
2023/04/06 01:19:27;;;;;;;7.83;6.27;;;1.20;99.90;;;;;;5018701;28;20719;-52
2023/04/06 01:21:54;;;;;;;7.77;6.23;;;0.90;99.90;;;;;;5018223;28;20448;-49
2023/04/06 01:24:23;;;;;;;6.60;5.57;;;0.80;99.90;;;;;;5018203;28;20471;-52
2023/04/06 01:26:50;;;;;;;8.13;5.93;;;1.10;99.90;;;;;;5018928;28;20521;-50
2023/04/06 01:29:17;;;;;;;8.43;6.30;;;1.00;99.90;;;;;;5018458;28;20864;-50
2023/04/06 01:31:43;;;;;;;7.10;6.40;;;1.10;99.90;;;;;;5015141;28;20887;-51
2023/04/06 01:34:10;;;;;;;6.23;5.60;;;1.30;99.90;;;;;;5014299;28;21051;-49
2023/04/06 01:36:37;;;;;;;6.90;6.20;;;1.50;99.90;;;;;;5015835;28;20451;-51
2023/04/06 01:39:05;;;;;;;9.83;6.93;;;1.20;99.90;;;;;;5016261;28;20502;-49
2023/04/06 01:41:33;;;;;;;5.90;5.30;;;1.10;99.90;;;;;;5016884;28;20883;-51
2023/04/06 01:44:00;;;;;;;6.60;5.93;;;1.10;99.90;;;;;;5016865;28;20481;-51
2023/04/06 01:46:27;;;;;;;6.60;6.00;;;1.10;99.90;;;;;;5017214;28;20462;-49
2023/04/06 01:48:54;;;;;;;7.40;6.80;;;1.20;99.90;;;;;;5017642;28;20498;-51
2023/04/06 01:51:21;;;;;;;8.40;7.53;;;1.00;99.90;;;;;;5017078;28;20455;-49
2023/04/06 01:53:49;;;;;;;7.77;6.97;;;1.20;99.90;;;;;;5017349;28;20538;-50
2023/04/06 01:56:16;;;;;;;6.60;5.90;;;1.00;99.90;;;;;;5017419;28;20534;-49
2023/04/06 01:58:44;;;;;;;7.30;6.57;;;0.70;99.90;;;;;;5016746;28;20451;-51
2023/04/06 02:01:11;;;;;;;7.80;6.90;;;0.60;99.90;;;;;;5017225;28;20522;-51
2023/04/06 02:03:38;;;;;;;6.10;5.50;;;0.80;99.90;;;;;;5015750;28;20467;-49
2023/04/06 02:06:05;;;;;;;10.20;6.77;;;0.70;99.90;;;;;;5016703;28;20440;-52
2023/04/06 02:08:32;;;;;;;7.47;6.60;;;0.50;99.90;;;;;;5017925;28;20451;-50
2023/04/06 02:10:59;;;;;;;7.93;6.27;;;0.70;99.90;;;;;;5017063;28;20444;-50
2023/04/06 02:13:26;;;;;;;6.87;6.17;;;0.80;99.90;;;;;;5016855;28;20463;-49
2023/04/06 02:15:55;;;;;;;6.73;6.13;;;0.70;99.90;;;;;;5016752;28;20931;-51
2023/04/06 02:18:22;;;;;;;12.03;7.00;;;0.80;99.90;;;;;;5016492;28;20502;-50
2023/04/06 02:20:49;;;;;;;6.37;5.87;;;0.80;99.90;;;;;;5016890;28;20467;-49
2023/04/06 02:23:16;;;;;;;9.90;6.93;;;0.70;99.90;;;;;;5016392;28;20463;-51
2023/04/06 02:25:43;;;;;;;7.70;6.50;;;0.70;99.90;;;;;;5016061;28;20557;-50
2023/04/06 02:28:10;;;;;;;8.57;6.20;;;0.90;99.90;;;;;;5017033;28;20447;-52
2023/04/06 02:30:37;;;;;;;7.03;6.27;;;0.70;99.90;;;;;;5017178;28;20445;-50
2023/04/06 02:33:05;;;;;;;6.90;6.10;;;0.60;99.90;;;;;;5016090;28;20471;-52
2023/04/06 02:35:32;;;;;;;6.80;5.83;;;0.60;99.90;;;;;;5016746;28;20474;-52
2023/04/06 02:37:59;;;;;;;7.40;6.70;;;0.50;99.90;;;;;;5016403;28;20447;-49
2023/04/06 02:40:26;;;;;;;7.17;6.23;;;0.00;99.90;;;;;;5015710;28;20506;-53
2023/04/06 02:42:53;;;;;;;7.03;6.30;;;0.30;99.90;;;;;;5015950;28;20517;-49
2023/04/06 02:45:20;;;;;;;7.87;5.50;;;0.30;99.90;;;;;;5015247;28;20476;-50
2023/04/06 02:47:47;;;;;;;8.57;6.57;;;0.30;99.90;;;;;;5016075;28;20452;-50
2023/04/06 02:50:16;;;;;;;6.53;5.87;;;0.20;99.90;;;;;;5015414;28;20448;-50
2023/04/06 02:52:43;;;;;;;7.73;5.90;;;0.30;99.90;;;;;;5016183;28;20483;-49
2023/04/06 02:55:10;;;;;;;7.03;6.10;;;0.60;99.90;;;;;;5016473;28;20451;-50
2023/04/06 02:57:37;;;;;;;7.87;6.07;;;0.60;99.90;;;;;;5015970;28;20444;-53
2023/04/06 03:00:05;;;;;;;8.60;6.60;;;0.60;99.90;;;;;;5015259;28;20447;-50
2023/04/06 03:02:32;;;;;;;8.47;6.67;;;0.50;99.90;;;;;;5014742;28;20463;-55
2023/04/06 03:04:59;;;;;;;7.30;6.33;;;0.50;99.90;;;;;;5015074;28;20479;-51
2023/04/06 03:07:27;;;;;;;7.17;6.47;;;0.60;99.90;;;;;;5015659;28;20455;-51
2023/04/06 03:09:54;;;;;;;7.50;6.70;;;0.50;99.90;;;;;;5015438;28;20951;-50
2023/04/06 03:12:21;;;;;;;6.57;5.97;;;0.20;99.90;;;;;;5015142;28;20503;-49
2023/04/06 03:14:48;;;;;;;10.57;6.87;;;0.10;99.90;;;;;;5014430;28;20447;-50
2023/04/06 03:17:15;;;;;;;10.67;7.30;;;-0.20;99.90;;;;;;5014530;28;20451;-50
2023/04/06 03:19:42;;;;;;;8.87;6.50;;;-0.20;99.90;;;;;;5014206;28;20535;-53
2023/04/06 03:22:09;;;;;;;8.27;6.83;;;-0.20;99.90;;;;;;5015650;28;20447;-51
2023/04/06 03:24:37;;;;;;;8.10;7.03;;;0.00;99.90;;;;;;5015600;28;20483;-50
2023/04/06 03:27:06;;;;;;;7.87;6.90;;;0.00;99.90;;;;;;5016411;28;20494;-52
2023/04/06 03:29:33;;;;;;;8.80;7.83;;;0.00;99.90;;;;;;5014497;28;20527;-51
2023/04/06 03:32:00;;;;;;;7.53;6.77;;;0.20;99.90;;;;;;5015067;28;20451;-51
2023/04/06 03:34:27;;;;;;;8.90;7.60;;;0.50;99.90;;;;;;5014693;28;20463;-50
2023/04/06 03:36:54;;;;;;;8.57;6.90;;;0.50;99.90;;;;;;5014692;28;20938;-50
2023/04/06 03:39:21;;;;;;;7.83;6.60;;;0.40;99.90;;;;;;5015482;28;20946;-50
2023/04/06 03:41:49;;;;;;;7.53;6.73;;;0.50;99.90;;;;;;5015245;28;20448;-50
2023/04/06 03:44:16;;;;;;;6.70;6.10;;;0.70;99.90;;;;;;5014462;28;20467;-50
2023/04/06 03:46:43;;;;;;;7.00;6.30;;;0.60;99.90;;;;;;5015088;28;20562;-50
2023/04/06 03:49:10;;;;;;;8.60;7.60;;;0.60;99.90;;;;;;5014210;28;20447;-50
2023/04/06 03:51:37;;;;;;;7.43;6.73;;;0.50;99.90;;;;;;5013955;28;20831;-51
2023/04/06 03:54:04;;;;;;;8.00;6.37;;;0.60;99.90;;;;;;5014894;28;20990;-50
2023/04/06 03:56:32;;;;;;;8.20;7.40;;;0.50;99.90;;;;;;5014889;28;20452;-50
2023/04/06 03:59:01;;;;;;;8.37;7.20;;;0.40;99.90;;;;;;5014337;28;20440;-49
2023/04/06 04:01:28;;;;;;;10.07;6.93;;;0.30;99.90;;;;;;5014009;28;20447;-52
2023/04/06 04:03:55;;;;;;;10.03;7.33;;;0.20;99.90;;;;;;5014408;28;20463;-52
2023/04/06 04:06:22;;;;;;;11.83;8.70;;;0.30;99.90;;;;;;5013677;28;20538;-52
2023/04/06 04:08:49;;;;;;;8.80;7.20;;;0.20;99.90;;;;;;5014051;28;20574;-50
2023/04/06 04:11:16;;;;;;;8.40;7.23;;;0.40;99.90;;;;;;5014772;28;20502;-49
2023/04/06 04:13:43;;;;;;;9.97;7.70;;;0.50;99.90;;;;;;5014703;28;20543;-51
2023/04/06 04:16:11;;;;;;;7.70;7.00;;;0.60;99.90;;;;;;5014652;28;20473;-50
2023/04/06 04:18:38;;;;;;;12.20;10.30;;;0.70;99.90;;;;;;5014580;28;20935;-49
2023/04/06 04:21:05;;;;;;;11.13;7.40;;;0.10;99.90;;;;;;5013085;28;20999;-49
2023/04/06 04:23:32;;;;;;;10.33;8.03;;;-0.30;99.90;;;;;;5012753;28;20468;-49
2023/04/06 04:25:59;;;;;;;9.20;7.97;;;-0.20;99.90;;;;;;5010790;28;20898;-53
2023/04/06 04:28:26;;;;;;;7.73;6.93;;;0.10;99.90;;;;;;5011636;28;20443;-49
2023/04/06 04:30:53;;;;;;;8.30;7.00;;;0.40;99.90;;;;;;5013125;28;20443;-49
2023/04/06 04:33:21;;;;;;;7.20;6.50;;;0.70;99.90;;;;;;5012685;28;20491;-50
2023/04/06 04:35:48;;;;;;;8.73;7.10;;;0.80;99.90;;;;;;5012842;28;20447;-50
2023/04/06 04:38:15;;;;;;;8.77;6.27;;;0.80;99.90;;;;;;5008790;28;20681;-50
2023/04/06 04:40:42;;;;;;;11.67;8.90;;;0.60;99.90;;;;;;5013806;28;20505;-50
2023/04/06 04:43:09;;;;;;;9.80;8.77;;;0.30;99.90;;;;;;5011019;28;20468;-50
2023/04/06 04:45:36;;;;;;;11.50;9.03;;;0.30;99.90;;;;;;5013186;28;21035;-51
2023/04/06 04:48:04;;;;;;;8.70;7.47;;;0.30;99.90;;;;;;5013868;28;20448;-50
2023/04/06 04:50:33;;;;;;;15.27;12.37;;;0.40;99.90;;;;;;5014724;28;20443;-50
2023/04/06 04:53:00;;;;;;;9.73;8.73;;;0.70;99.90;;;;;;5012715;28;20479;-50
2023/04/06 04:55:27;;;;;;;8.53;7.70;;;0.80;99.90;;;;;;5010472;28;20443;-52
2023/04/06 04:57:54;;;;;;;9.33;7.50;;;0.80;99.90;;;;;;5004033;28;20536;-50
2023/04/06 05:00:21;;;;;;;8.43;7.50;;;0.50;99.90;;;;;;5003573;28;20447;-53
2023/04/06 05:02:48;;;;;;;10.93;9.63;;;0.10;99.90;;;;;;5007828;28;20912;-50
2023/04/06 05:05:15;;;;;;;11.47;8.20;;;0.30;99.90;;;;;;5011528;28;21076;-51
2023/04/06 05:07:43;;;;;;;8.90;7.50;;;0.50;99.90;;;;;;5007214;28;20943;-52
2023/04/06 05:10:11;;;;;;;7.73;7.00;;;0.50;99.90;;;;;;5013053;28;20444;-51
2023/04/06 05:12:38;;;;;;;9.97;8.80;;;0.60;99.90;;;;;;5006045;28;20978;-51
2023/04/06 05:15:06;;;;;;;13.03;8.60;;;0.30;99.90;;;;;;5009423;28;20575;-51
2023/04/06 05:17:34;;;;;;;8.30;7.50;;;0.30;99.90;;;;;;5003102;28;20477;-50
2023/04/06 05:20:02;;;;;;;11.43;9.53;;;0.30;99.90;;;;;;5005890;28;20940;-50
2023/04/06 05:22:28;;;;;;;21.00;13.70;;;0.40;99.90;;;;;;5003589;28;20507;-51
2023/04/06 05:24:57;;;;;;;16.30;13.17;;;0.60;99.90;;;;;;5003675;28;20444;-50
2023/04/06 05:27:24;;;;;;;14.57;11.47;;;0.50;99.90;;;;;;5005754;28;21187;-54
2023/04/06 05:29:52;;;;;;;11.87;10.67;;;0.40;99.90;;;;;;5010563;28;20447;-51
2023/04/06 05:32:21;;;;;;;14.87;12.57;;;0.50;99.90;;;;;;5013326;28;20515;-51
2023/04/06 05:34:49;;;;;;;10.70;9.40;;;0.70;99.90;;;;;;5014012;28;20501;-53
2023/04/06 05:37:16;;;;;;;9.37;8.20;;;0.80;99.90;;;;;;5013779;28;20451;-50
2023/04/06 05:39:43;;;;;;;10.60;9.50;;;1.00;99.90;;;;;;5012590;28;20466;-53
2023/04/06 05:42:11;;;;;;;11.70;10.60;;;1.00;99.90;;;;;;5013292;28;20470;-51
2023/04/06 05:44:39;;;;;;;11.10;8.13;;;0.70;99.90;;;;;;5013109;28;20479;-50
2023/04/06 05:47:06;;;;;;;9.73;8.73;;;0.60;99.90;;;;;;5013119;28;20479;-50
2023/04/06 05:49:33;;;;;;;15.40;9.33;;;0.50;99.90;;;;;;5013344;28;20448;-49
2023/04/06 05:52:00;;;;;;;13.57;11.53;;;0.50;99.90;;;;;;5012172;28;20467;-50
2023/04/06 05:54:27;;;;;;;11.03;9.77;;;0.70;99.90;;;;;;5012715;28;21111;-50
2023/04/06 05:56:54;;;;;;;11.83;9.67;;;0.30;99.90;;;;;;5012321;28;20444;-51
2023/04/06 05:59:23;;;;;;;11.60;10.20;;;0.10;99.90;;;;;;5012432;28;20497;-50
2023/04/06 06:01:50;;;;;;;14.37;10.90;;;0.10;99.90;;;;;;5015882;28;20823;-51
2023/04/06 06:04:17;;;;;;;18.03;12.93;;;0.30;99.90;;;;;;5016595;28;20463;-51
2023/04/06 06:06:44;;;;;;;24.13;17.33;;;0.50;99.90;;;;;;5016963;28;20487;-51
2023/04/06 06:09:11;;;;;;;13.40;10.63;;;0.50;99.90;;;;;;5017195;28;20447;-51
2023/04/06 06:11:38;;;;;;;14.00;11.17;;;0.50;99.90;;;;;;5016799;28;20491;-51
2023/04/06 06:14:05;;;;;;;18.23;13.40;;;0.80;99.90;;;;;;5016233;28;20517;-50
2023/04/06 06:16:33;;;;;;;14.53;11.50;;;0.90;99.90;;;;;;5017909;28;20964;-51
2023/04/06 06:19:00;;;;;;;17.47;13.87;;;0.90;99.90;;;;;;5017527;28;20443;-52
2023/04/06 06:21:27;;;;;;;17.50;13.20;;;1.00;99.90;;;;;;5017363;28;20443;-50
2023/04/06 06:23:54;;;;;;;17.17;12.00;;;1.10;99.90;;;;;;5017887;28;20782;-50
2023/04/06 06:26:21;;;;;;;17.93;12.80;;;1.10;99.90;;;;;;5017581;28;21001;-50
2023/04/06 06:28:48;;;;;;;23.73;12.63;;;1.20;99.90;;;;;;5017715;28;20470;-50
2023/04/06 06:31:16;;;;;;;15.40;12.90;;;1.20;99.90;;;;;;5016839;28;20446;-51
2023/04/06 06:33:44;;;;;;;16.00;11.93;;;1.20;99.90;;;;;;5017033;28;20970;-50
2023/04/06 06:36:11;;;;;;;25.80;18.63;;;1.30;99.90;;;;;;5018251;28;20483;-53
2023/04/06 06:38:39;;;;;;;14.43;12.87;;;1.10;99.90;;;;;;5016778;28;20444;-50
2023/04/06 06:41:06;;;;;;;15.50;10.67;;;0.90;99.90;;;;;;5017000;28;20444;-50
2023/04/06 06:43:33;;;;;;;10.00;8.00;;;0.80;99.90;;;;;;5015873;28;20538;-50
2023/04/06 06:46:00;;;;;;;14.37;12.00;;;1.00;99.90;;;;;;5016774;28;20827;-53
2023/04/06 06:48:27;;;;;;;15.00;11.53;;;1.30;99.90;;;;;;5017340;28;20448;-50
2023/04/06 06:50:56;;;;;;;17.30;11.97;;;1.30;99.90;;;;;;5016989;28;20459;-52
2023/04/06 06:53:23;;;;;;;13.20;10.90;;;1.40;99.90;;;;;;5016848;28;20527;-50
2023/04/06 06:55:50;;;;;;;10.20;8.60;;;1.60;99.90;;;;;;5016535;28;20857;-53
2023/04/06 06:58:19;;;;;;;11.20;9.40;;;1.20;99.90;;;;;;5015500;28;20443;-51
2023/04/06 07:00:46;;;;;;;10.00;9.00;;;1.10;99.90;;;;;;5016686;28;20471;-52
2023/04/06 07:03:13;;;;;;;15.73;9.53;;;1.10;99.90;;;;;;5016758;28;20509;-50
2023/04/06 07:05:52;;;;;;;10.60;7.77;;;1.10;99.90;;;;;;5017407;28;21039;-50
2023/04/06 07:08:21;;;;;;;7.73;6.93;;;1.20;99.90;;;;;;5017151;28;20455;-51
2023/04/06 07:10:48;;;;;;;11.37;8.63;;;1.20;99.90;;;;;;5016838;28;20443;-51
2023/04/06 07:13:18;;;;;;;10.10;8.80;;;1.50;99.90;;;;;;5015108;28;20467;-52
2023/04/06 07:15:45;;;;;;;10.70;9.60;;;1.40;99.90;;;;;;5015871;28;20444;-51
2023/04/06 07:18:13;;;;;;;13.20;10.40;;;1.40;99.90;;;;;;5013248;28;20444;-50
2023/04/06 07:20:40;;;;;;;12.10;10.53;;;1.40;99.90;;;;;;5012219;28;20946;-50
2023/04/06 07:23:07;;;;;;;12.00;10.70;;;1.60;99.90;;;;;;5012987;28;20529;-52
2023/04/06 07:25:36;;;;;;;12.20;11.00;;;1.60;99.90;;;;;;5014938;28;20494;-51
2023/04/06 07:28:03;;;;;;;11.83;10.53;;;1.50;99.90;;;;;;5015262;28;20447;-50
2023/04/06 07:30:30;;;;;;;11.97;10.70;;;1.50;99.90;;;;;;5016015;28;20478;-53
2023/04/06 07:32:58;;;;;;;13.30;10.63;;;1.60;99.90;;;;;;5015652;28;20509;-48
2023/04/06 07:35:26;;;;;;;11.93;10.67;;;1.90;99.90;;;;;;5017268;28;20447;-49
2023/04/06 07:37:53;;;;;;;14.90;11.07;;;2.10;99.90;;;;;;5014593;28;20447;-51
2023/04/06 07:40:20;;;;;;;11.23;9.57;;;2.20;99.90;;;;;;5014466;28;20859;-50
2023/04/06 07:42:48;;;;;;;12.17;9.40;;;2.20;99.90;;;;;;5015215;28;20463;-50
2023/04/06 07:45:16;;;;;;;11.17;7.80;;;2.40;99.90;;;;;;5016255;28;20863;-50
2023/04/06 07:47:43;;;;;;;9.90;7.73;;;2.50;99.90;;;;;;5016106;28;20519;-51
2023/04/06 07:50:11;;;;;;;9.40;8.57;;;2.70;99.90;;;;;;5015954;28;20455;-50
2023/04/06 07:52:39;;;;;;;9.50;8.60;;;2.70;99.90;;;;;;5014666;28;21007;-51
2023/04/06 07:55:06;;;;;;;9.53;8.00;;;2.90;99.90;;;;;;5015770;28;20440;-51
2023/04/06 07:57:33;;;;;;;8.23;7.53;;;3.10;99.90;;;;;;5015177;28;20669;-51
2023/04/06 08:00:02;;;;;;;8.40;7.60;;;3.10;99.90;;;;;;5015294;28;20483;-50
2023/04/06 08:02:29;;;;;;;10.43;8.43;;;3.10;99.90;;;;;;5015522;28;21021;-50
2023/04/06 08:04:56;;;;;;;10.00;8.40;;;3.10;99.90;;;;;;5015078;28;20444;-52
2023/04/06 08:07:22;;;;;;;8.37;7.47;;;3.20;99.90;;;;;;5015254;28;20483;-51
2023/04/06 08:09:49;;;;;;;9.47;7.80;;;3.20;99.90;;;;;;5015545;28;20514;-50
2023/04/06 08:12:16;;;;;;;10.70;8.10;;;3.30;99.90;;;;;;5015341;28;20462;-51
2023/04/06 08:14:43;;;;;;;8.47;7.67;;;3.30;99.90;;;;;;5015858;28;20443;-51
2023/04/06 08:17:12;;;;;;;8.73;7.90;;;3.40;99.90;;;;;;5015776;28;20441;-51
2023/04/06 08:19:39;;;;;;;9.83;8.37;;;3.40;99.90;;;;;;5016451;28;20440;-51
2023/04/06 08:22:06;;;;;;;9.87;7.60;;;3.70;99.90;;;;;;5016023;28;20480;-50
2023/04/06 08:24:33;;;;;;;7.87;6.83;;;3.90;99.90;;;;;;5015509;28;20854;-51
2023/04/06 08:27:00;;;;;;;9.77;7.77;;;4.00;99.90;;;;;;5015364;28;21053;-51
2023/04/06 08:29:27;;;;;;;7.67;6.87;;;4.00;99.90;;;;;;5016772;28;20446;-51
2023/04/06 08:31:54;;;;;;;8.00;7.20;;;4.20;99.90;;;;;;5015696;28;20448;-52
2023/04/06 08:34:23;;;;;;;7.10;6.20;;;4.20;99.90;;;;;;5015382;28;20613;-52
2023/04/06 08:36:51;;;;;;;8.77;7.37;;;4.40;99.90;;;;;;5016358;28;20452;-50
2023/04/06 08:39:23;;;;;;;7.83;7.13;;;4.30;99.90;;;;;;5015617;28;20473;-51
2023/04/06 08:41:51;;;;;;;10.00;7.77;;;4.30;99.90;;;;;;5015989;28;20452;-51
2023/04/06 08:44:18;;;;;;;7.10;6.53;;;4.40;99.90;;;;;;5015386;28;20552;-51
2023/04/06 08:46:45;;;;;;;7.63;6.93;;;4.60;99.90;;;;;;5014564;28;20469;-51
2023/04/06 08:49:15;;;;;;;8.10;7.40;;;4.70;99.90;;;;;;5014849;28;20445;-51
2023/04/06 08:51:43;;;;;;;7.07;6.57;;;4.80;99.90;;;;;;5014045;28;20536;-52
2023/04/06 08:54:11;;;;;;;8.50;7.70;;;5.00;99.90;;;;;;5015341;28;20479;-53
2023/04/06 08:56:39;;;;;;;7.97;6.50;;;5.10;99.90;;;;;;5014238;28;20446;-52
2023/04/06 08:59:07;;;;;;;7.90;7.20;;;5.40;99.90;;;;;;5014791;28;20973;-53
2023/04/06 09:01:39;;;;;;;7.30;6.10;;;5.50;99.90;;;;;;5014509;28;20495;-51
2023/04/06 09:04:10;;;;;;;6.83;6.23;;;5.50;99.90;;;;;;5014443;28;20907;-51
2023/04/06 09:06:37;;;;;;;7.20;6.50;;;5.50;99.90;;;;;;5013698;28;20482;-52
2023/04/06 09:09:06;;;;;;;9.87;7.30;;;5.50;99.90;;;;;;5014487;28;20454;-51
2023/04/06 09:11:43;;;;;;;7.40;6.57;;;5.50;99.90;;;;;;5013937;28;20508;-54
2023/04/06 09:14:10;;;;;;;10.83;6.40;;;5.80;99.90;;;;;;5013672;28;20876;-51
2023/04/06 09:16:41;;;;;;;7.53;6.87;;;6.00;99.90;;;;;;5013353;28;20439;-53
2023/04/06 09:19:08;;;;;;;5.87;5.27;;;6.10;99.90;;;;;;5014164;28;20976;-52
2023/04/06 09:21:35;;;;;;;7.00;6.30;;;6.10;99.90;;;;;;5013633;28;20486;-52
2023/04/06 09:24:03;;;;;;;7.67;6.87;;;6.20;99.90;;;;;;5014165;28;20851;-52
2023/04/06 09:26:33;;;;;;;7.20;6.50;;;6.30;99.90;;;;;;5012907;28;21079;-52
2023/04/06 09:29:01;;;;;;;7.43;6.50;;;6.40;99.90;;;;;;5013199;28;20486;-54
2023/04/06 09:31:30;;;;;;;7.07;6.33;;;6.70;99.90;;;;;;5012792;28;20840;-52
2023/04/06 09:33:57;;;;;;;6.87;5.87;;;6.70;99.90;;;;;;5013305;28;20471;-52
2023/04/06 09:36:32;;;;;;;6.47;5.87;;;6.80;99.90;;;;;;5016172;28;20485;-52
2023/04/06 09:39:01;;;;;;;7.43;5.10;;;7.20;98.60;;;;;;5017563;28;20477;-51
2023/04/06 09:41:31;;;;;;;6.10;5.60;;;7.50;99.30;;;;;;5018711;28;20450;-50
2023/04/06 09:44:05;;;;;;;5.37;4.87;;;7.60;99.40;;;;;;5018328;28;20467;-53
2023/04/06 09:46:34;;;;;;;6.80;5.17;;;7.70;96.90;;;;;;5016813;28;20478;-53
2023/04/06 09:49:03;;;;;;;6.20;5.37;;;7.60;96.70;;;;;;5016453;28;20451;-52
2023/04/06 09:51:33;;;;;;;6.47;5.87;;;7.60;96.60;;;;;;5016670;28;20446;-53
2023/04/06 09:54:02;;;;;;;5.27;4.77;;;7.60;96.90;;;;;;5016055;28;20481;-52
2023/04/06 09:56:38;;;;;;;7.90;5.33;;;7.60;96.30;;;;;;5015981;28;20451;-53
2023/04/06 09:59:13;;;;;;;5.90;4.60;;;7.60;94.10;;;;;;5015791;28;20492;-51
2023/04/06 10:01:41;;;;;;;5.50;4.83;;;7.40;94.10;;;;;;5016168;28;20865;-52
2023/04/06 10:04:22;;;;;;;7.17;4.60;;;7.60;96.00;;;;;;5015867;28;20489;-52
2023/04/06 10:06:52;;;;;;;4.57;4.00;;;7.90;93.80;;;;;;5014400;28;20915;-50
2023/04/06 10:09:20;;;;;;;4.73;4.33;;;7.70;93.20;;;;;;5014483;28;20998;-50
2023/04/06 10:11:50;;;;;;;5.20;4.70;;;7.90;93.10;;;;;;5013649;28;20530;-54
2023/04/06 10:14:17;;;;;;;5.73;4.73;;;7.90;92.20;;;;;;5011301;28;20486;-50
2023/04/06 10:16:44;;;;;;;5.20;4.70;;;8.00;91.50;;;;;;5016333;28;20528;-52
2023/04/06 10:19:17;;;;;;;5.00;4.50;;;8.10;95.00;;;;;;5019326;28;20463;-51
2023/04/06 10:21:49;;;;;;;6.43;5.20;;;8.50;93.30;;;;;;5022223;28;20977;-50
2023/04/06 10:24:17;;;;;;;5.87;5.20;;;8.40;89.10;;;;;;5030909;28;21019;-53
2023/04/06 10:26:44;;;;;;;4.50;4.10;;;8.40;91.00;;;;;;5022703;28;20478;-50
2023/04/06 10:29:12;;;;;;;5.17;4.23;;;8.50;91.70;;;;;;5010556;28;20444;-55
2023/04/06 10:31:44;;;;;;;6.50;4.73;;;8.60;90.90;;;;;;5010874;28;20506;-53
2023/04/06 10:34:11;;;;;;;4.40;4.00;;;8.90;90.90;;;;;;5008600;28;21029;-51
2023/04/06 10:36:38;;;;;;;4.90;4.50;;;9.00;91.00;;;;;;5009596;28;20819;-51
2023/04/06 10:39:06;;;;;;;4.40;4.00;;;8.90;90.50;;;;;;5011855;28;20491;-51
2023/04/06 10:41:35;;;;;;;4.53;4.13;;;8.50;90.90;;;;;;5008928;28;20460;-52
2023/04/06 10:44:02;;;;;;;4.60;4.17;;;9.00;93.00;;;;;;5010028;28;20542;-53
2023/04/06 10:46:32;;;;;;;4.80;4.30;;;8.90;89.30;;;;;;5009521;28;20455;-51
2023/04/06 10:49:10;;;;;;;5.60;5.10;;;8.70;84.60;;;;;;5009504;28;20482;-51
2023/04/06 10:51:40;;;;;;;5.90;5.30;;;8.80;93.10;;;;;;5011474;28;20487;-52
2023/04/06 10:54:07;;;;;;;4.87;4.43;;;9.20;91.00;;;;;;5021992;28;20520;-50
2023/04/06 10:56:38;;;;;;;5.93;4.50;;;9.30;91.70;;;;;;5011348;28;20455;-52
2023/04/06 10:59:07;;;;;;;4.97;4.53;;;9.30;91.00;;;;;;5021287;28;20459;-52
2023/04/06 11:01:35;;;;;;;4.53;4.13;;;9.10;91.30;;;;;;5012694;28;20473;-51
2023/04/06 11:04:03;;;;;;;5.00;4.40;;;9.30;91.10;;;;;;5017269;28;20475;-51
2023/04/06 11:06:32;;;;;;;3.97;3.63;;;9.50;91.50;;;;;;5019767;28;20459;-51
2023/04/06 11:09:00;;;;;;;5.53;4.60;;;9.20;84.70;;;;;;5023070;28;20457;-54
2023/04/06 11:11:27;;;;;;;4.50;3.77;;;9.10;84.30;;;;;;5023998;28;20467;-50
2023/04/06 11:13:56;;;;;;;4.67;4.13;;;8.90;80.90;;;;;;5012186;28;20531;-50
2023/04/06 11:16:24;;;;;;;3.30;3.00;;;8.90;85.70;;;;;;5021910;28;20493;-50
2023/04/06 11:18:54;;;;;;;5.00;4.50;;;9.00;90.00;;;;;;5014357;28;20467;-52
2023/04/06 11:21:33;;;;;;;4.67;4.30;;;9.00;88.90;;;;;;5014631;28;20530;-52
2023/04/06 11:24:06;;;;;;;5.43;4.47;;;9.30;86.00;;;;;;5014399;28;20550;-53
2023/04/06 11:26:37;;;;;;;5.80;4.10;;;9.50;85.10;;;;;;5014907;28;20501;-51
2023/04/06 11:29:04;;;;;;;4.50;4.10;;;9.60;86.00;;;;;;5014251;28;20500;-52
2023/04/06 11:31:31;;;;;;;4.57;4.13;;;9.60;86.80;;;;;;5014004;28;20455;-51
2023/04/06 11:34:00;;;;;;;5.50;4.20;;;9.50;83.80;;;;;;5014250;28;20518;-51
2023/04/06 11:36:29;;;;;;;5.00;4.50;;;9.80;84.00;;;;;;5013081;28;20451;-52
2023/04/06 11:38:57;;;;;;;4.77;4.27;;;9.70;83.30;;;;;;5013874;28;20454;-52
2023/04/06 11:41:29;;;;;;;4.00;3.60;;;9.70;79.30;;;;;;5014306;28;20439;-53
2023/04/06 11:43:56;;;;;;;4.17;3.77;;;9.70;79.80;;;;;;5014390;28;21068;-51
2023/04/06 11:46:23;;;;;;;5.90;4.67;;;9.70;84.10;;;;;;5013487;28;20501;-52
2023/04/06 11:48:50;;;;;;;3.93;3.40;;;9.40;76.30;;;;;;5013159;28;20483;-50
2023/04/06 11:51:24;;;;;;;5.00;4.10;;;9.10;78.70;;;;;;5013479;28;20824;-51
2023/04/06 11:53:51;;;;;;;6.10;4.50;;;8.90;72.80;;;;;;5012979;28;20845;-52
2023/04/06 11:56:29;;;;;;;5.87;4.57;;;9.10;80.50;;;;;;5013342;28;20506;-50
2023/04/06 11:58:57;;;;;;;4.87;4.37;;;9.50;84.20;;;;;;5012558;28;20942;-50
2023/04/06 12:01:24;;;;;;;5.40;4.90;;;9.70;83.30;;;;;;5013614;28;20435;-51
2023/04/06 12:03:52;;;;;;;5.70;4.20;;;9.60;90.30;;;;;;5013296;28;20530;-51
2023/04/06 12:06:19;;;;;;;4.40;4.00;;;9.60;87.20;;;;;;5021971;23;20443;-86
2023/04/06 12:08:48;;;;;;;4.10;3.70;;;9.70;81.30;;;;;;5003065;28;20494;-86
2023/04/06 12:11:15;;;;;;;5.03;4.00;;;9.50;81.60;;;;;;4999423;28;20799;-86
2023/04/06 12:13:42;;;;;;;4.77;4.37;;;9.80;85.00;;;;;;5000710;28;20473;-87
2023/04/06 12:16:09;;;;;;;5.07;4.53;;;9.70;81.50;;;;;;5001164;28;20507;-86
2023/04/06 12:21:11;;;;;;;3.83;3.43;;;9.30;81.30;;;;;;5049927;28;20510;-54
2023/04/06 12:23:38;;;;;;;4.93;4.50;;;9.80;81.10;;;;;;5051657;28;20438;-55
2023/04/06 12:26:07;;;;;;;4.20;3.80;;;9.80;77.00;;;;;;5050393;28;20502;-55
2023/04/06 12:28:34;;;;;;;5.10;4.00;;;9.40;76.20;;;;;;5031428;28;20474;-54
2023/04/06 12:31:01;;;;;;;3.80;3.50;;;9.60;77.60;;;;;;5030879;28;20789;-54
2023/04/06 12:33:27;;;;;;;4.23;3.83;;;9.70;80.00;;;;;;5031632;28;20454;-54
2023/04/06 12:35:55;;;;;;;4.77;4.33;;;9.60;75.30;;;;;;5031019;28;20873;-54
2023/04/06 12:38:22;;;;;;;6.40;4.60;;;9.40;71.00;;;;;;5030846;28;20494;-55
2023/04/06 12:40:49;;;;;;;4.67;4.23;;;9.70;86.30;;;;;;5030808;28;20449;-55
2023/04/06 12:43:17;;;;;;;4.90;4.33;;;10.00;82.50;;;;;;5015518;28;20443;-54
2023/04/06 12:45:44;;;;;;;4.50;3.80;;;10.20;85.80;;;;;;5011015;28;20501;-55
2023/04/06 12:48:11;;;;;;;5.83;4.83;;;10.00;79.00;;;;;;5011311;28;20482;-54
2023/04/06 12:50:38;;;;;;;4.90;4.40;;;9.90;77.90;;;;;;5011307;28;20451;-55
2023/04/06 12:53:05;;;;;;;5.40;4.37;;;9.80;81.50;;;;;;5011106;28;20455;-54
2023/04/06 12:55:35;;;;;;;5.10;4.17;;;9.90;79.30;;;;;;5010922;28;20969;-56
2023/04/06 12:58:02;;;;;;;4.67;4.27;;;9.80;80.30;;;;;;5011196;28;20467;-55